Welcome to Northern Hawkes Bay. New Zealand.
PWS Header
      nz Flag



Hit Counter


W3C Valid W3C Valid logo


    Wairoa

Select any of the Stations below to visit their websites.










Historic Data from Weather Underground
Select the location of interest below. Wairoa is the default. Please have patience, this Data is slow to load in.
Northern Hawkes Bay Historical Data
Daily Summary for January 6, 2017 Units:  Metric    English   Both
« Previous Day
Next Day »
Daily Weekly Monthly Yearly Custom
  High: Low: Average:
Temperature: 24.7 °C 8.2 °C 17.2 °C
Dew Point: 12.2 °C 5.1 °C 7.8 °C
Humidity: 99% 30% 60%
Wind Speed: 28.0km/h 0.0km/h 9.4km/h
Wind Gust: 42.8km/h - -
Wind- - NW
Pressure: 1019.5 hPa 1009.4 hPa -
Precipitation: 0.0 mm    
Historical Graphs
 
 
Tabular Data for January 6, 2017
Time Temperature Dew Point Pressure Wind Wind Speed Wind Gust Humidity Rainfall Rate (Hourly) solar
00:03 12.4 °C 8.5 °C 1019.5 hPa NW 2.6 km/h 5.0 km/h 77% 0.0 mm 0 W/m2
00:08 12.2 °C 8.7 °C 1019.5 hPa NW 2.6 km/h 5.0 km/h 79% 0.0 mm 0 W/m2
00:13 12.0 °C 8.8 °C 1019.5 hPa Calm   5.0 km/h 81% 0.0 mm 0 W/m2
00:18 11.9 °C 8.9 °C 1019.5 hPa NNW 2.6 km/h 3.5 km/h 82% 0.0 mm 0 W/m2
00:23 11.8 °C 9.0 °C 1019.5 hPa NNW 2.6 km/h 5.0 km/h 83% 0.0 mm 0 W/m2
00:28 11.6 °C 9.0 °C 1019.5 hPa NNW 1.1 km/h 5.0 km/h 84% 0.0 mm 0 W/m2
00:33 11.5 °C 9.1 °C 1019.5 hPa Calm   3.5 km/h 85% 0.0 mm 0 W/m2
00:38 11.4 °C 8.9 °C 1019.5 hPa NW 2.6 km/h 3.5 km/h 85% 0.0 mm 0 W/m2
00:43 11.4 °C 9.2 °C 1019.5 hPa NW 1.1 km/h 3.5 km/h 86% 0.0 mm 0 W/m2
00:48 11.3 °C 9.1 °C 1019.5 hPa NW 1.1 km/h 3.5 km/h 86% 0.0 mm 0 W/m2
00:53 11.3 °C 9.2 °C 1019.2 hPa NW 1.1 km/h 5.0 km/h 87% 0.0 mm 0 W/m2
00:58 11.2 °C 9.1 °C 1019.2 hPa NW 1.1 km/h 5.0 km/h 87% 0.0 mm 0 W/m2
01:03 11.1 °C 9.0 °C 1019.2 hPa Calm   3.5 km/h 87% 0.0 mm 0 W/m2
01:08 10.9 °C 9.0 °C 1019.2 hPa NNW 1.1 km/h 2.6 km/h 88% 0.0 mm 0 W/m2
01:13 10.9 °C 9.2 °C 1019.2 hPa North 1.1 km/h 3.5 km/h 89% 0.0 mm 0 W/m2
01:19 10.8 °C 9.2 °C 1019.2 hPa North 1.1 km/h 3.5 km/h 90% 0.0 mm 0 W/m2
01:24 10.7 °C 9.1 °C 1018.8 hPa North 1.1 km/h 3.5 km/h 90% 0.0 mm 0 W/m2
01:29 10.7 °C 9.1 °C 1019.2 hPa NNW 1.1 km/h 3.5 km/h 90% 0.0 mm 0 W/m2
01:34 10.7 °C 9.3 °C 1018.8 hPa Calm   3.5 km/h 91% 0.0 mm 0 W/m2
01:39 10.6 °C 9.2 °C 1018.8 hPa NW 1.1 km/h 3.5 km/h 91% 0.0 mm 0 W/m2
01:44 10.6 °C 9.2 °C 1019.2 hPa NW 1.1 km/h 3.5 km/h 91% 0.0 mm 0 W/m2
01:49 10.5 °C 9.1 °C 1018.8 hPa NW 1.1 km/h 3.5 km/h 91% 0.0 mm 0 W/m2
01:54 10.5 °C 9.3 °C 1018.8 hPa NW 2.6 km/h 5.0 km/h 92% 0.0 mm 0 W/m2
01:59 10.5 °C 9.3 °C 1018.8 hPa NW 2.6 km/h 5.0 km/h 92% 0.0 mm 0 W/m2
02:04 10.4 °C 9.3 °C 1018.8 hPa NW 2.6 km/h 5.0 km/h 93% 0.0 mm 0 W/m2
02:09 10.4 °C 9.3 °C 1018.8 hPa NW 1.1 km/h 5.0 km/h 93% 0.0 mm 0 W/m2
02:14 10.3 °C 9.2 °C 1018.8 hPa NW 1.1 km/h 5.0 km/h 93% 0.0 mm 0 W/m2
02:19 10.2 °C 9.1 °C 1018.8 hPa NW 1.1 km/h 3.5 km/h 93% 0.0 mm 0 W/m2
02:24 10.1 °C 9.0 °C 1018.8 hPa NW 2.6 km/h 3.5 km/h 93% 0.0 mm 0 W/m2
02:29 10.1 °C 9.0 °C 1018.5 hPa Calm   3.5 km/h 93% 0.0 mm 0 W/m2
02:34 10.1 °C 9.2 °C 1018.5 hPa NW 1.1 km/h 3.5 km/h 94% 0.0 mm 0 W/m2
02:39 10.0 °C 9.1 °C 1018.5 hPa NW 1.1 km/h 5.0 km/h 94% 0.0 mm 0 W/m2
02:44 9.9 °C 9.1 °C 1018.5 hPa NW 1.1 km/h 5.0 km/h 95% 0.0 mm 0 W/m2
02:49 9.9 °C 9.1 °C 1018.5 hPa NNW 1.1 km/h 3.5 km/h 95% 0.0 mm 0 W/m2
02:54 9.8 °C 9.1 °C 1018.2 hPa NNW 2.6 km/h 3.5 km/h 95% 0.0 mm 0 W/m2
02:59 9.7 °C 9.1 °C 1018.2 hPa NNW 1.1 km/h 5.0 km/h 96% 0.0 mm 0 W/m2
03:04 9.7 °C 9.1 °C 1018.2 hPa NNW 1.1 km/h 5.0 km/h 96% 0.0 mm 0 W/m2
03:09 9.6 °C 9.0 °C 1018.2 hPa NW 1.1 km/h 3.5 km/h 96% 0.0 mm 0 W/m2
03:14 9.6 °C 9.0 °C 1017.8 hPa NNW 3.5 km/h 5.0 km/h 96% 0.0 mm 0 W/m2
03:19 9.6 °C 9.0 °C 1017.8 hPa NNW 2.6 km/h 5.0 km/h 96% 0.0 mm 0 W/m2
03:24 9.6 °C 9.2 °C 1017.8 hPa NNW 5.0 km/h 6.1 km/h 97% 0.0 mm 0 W/m2
03:29 9.6 °C 9.2 °C 1017.8 hPa NW 1.1 km/h 6.1 km/h 97% 0.0 mm 0 W/m2
03:34 9.5 °C 9.1 °C 1017.8 hPa NNW 2.6 km/h 6.1 km/h 97% 0.0 mm 0 W/m2
03:39 9.4 °C 8.9 °C 1017.5 hPa NNW 3.5 km/h 5.0 km/h 97% 0.0 mm 0 W/m2
03:44 9.4 °C 8.9 °C 1017.5 hPa Calm   5.0 km/h 97% 0.0 mm 0 W/m2
03:49 9.3 °C 8.8 °C 1017.5 hPa North 1.1 km/h 5.0 km/h 97% 0.0 mm 0 W/m2
03:54 9.1 °C 8.8 °C 1017.5 hPa Calm   5.0 km/h 98% 0.0 mm 0 W/m2
03:59 9.0 °C 8.7 °C 1017.2 hPa Calm   3.5 km/h 98% 0.0 mm 0 W/m2
04:04 9.0 °C 8.7 °C 1017.2 hPa NNW 1.1 km/h 3.5 km/h 98% 0.0 mm 0 W/m2
04:09 8.9 °C 8.8 °C 1017.2 hPa NW 3.5 km/h 5.0 km/h 99% 0.0 mm 0 W/m2
04:14 8.8 °C 8.7 °C 1016.8 hPa NNW 1.1 km/h 5.0 km/h 99% 0.0 mm 0 W/m2
04:19 8.7 °C 8.6 °C 1016.8 hPa North 2.6 km/h 5.0 km/h 99% 0.0 mm 0 W/m2
04:24 8.7 °C 8.6 °C 1016.8 hPa North 1.1 km/h 5.0 km/h 99% 0.0 mm 0 W/m2
04:29 8.6 °C 8.4 °C 1016.8 hPa NNW 3.5 km/h 7.2 km/h 99% 0.0 mm 0 W/m2
04:34 8.6 °C 8.4 °C 1016.8 hPa NNW 2.6 km/h 7.2 km/h 99% 0.0 mm 0 W/m2
04:39 8.6 °C 8.4 °C 1017.2 hPa NNW 3.5 km/h 6.1 km/h 99% 0.0 mm 0 W/m2
04:44 8.7 °C 8.6 °C 1016.8 hPa NNW 3.5 km/h 7.2 km/h 99% 0.0 mm 0 W/m2
04:49 8.7 °C 8.6 °C 1016.8 hPa NNW 5.0 km/h 8.7 km/h 99% 0.0 mm 0 W/m2
04:54 8.7 °C 8.6 °C 1017.2 hPa NNW 5.0 km/h 9.7 km/h 99% 0.0 mm 0 W/m2
04:59 8.7 °C 8.6 °C 1016.8 hPa NW 6.1 km/h 9.7 km/h 99% 0.0 mm 0 W/m2
05:04 8.7 °C 8.6 °C 1016.8 hPa NW 6.1 km/h 9.7 km/h 99% 0.0 mm 0 W/m2
05:09 8.7 °C 8.6 °C 1016.8 hPa NNW 5.0 km/h 9.7 km/h 99% 0.0 mm 0 W/m2
05:14 8.6 °C 8.4 °C 1016.8 hPa NW 5.0 km/h 9.7 km/h 99% 0.0 mm 0 W/m2
05:19 8.5 °C 8.3 °C 1016.8 hPa NNW 7.2 km/h 8.7 km/h 99% 0.0 mm 0 W/m2
05:24 8.4 °C 8.3 °C 1016.8 hPa NNW 6.1 km/h 8.7 km/h 99% 0.0 mm 0 W/m2
05:29 8.4 °C 8.3 °C 1016.8 hPa NNW 6.1 km/h 8.7 km/h 99% 0.0 mm 0 W/m2
05:34 8.3 °C 8.2 °C 1016.8 hPa NNW 5.0 km/h 9.7 km/h 99% 0.0 mm 0 W/m2
05:39 8.3 °C 8.2 °C 1016.8 hPa NW 7.2 km/h 9.7 km/h 99% 0.0 mm 0 W/m2
05:44 8.3 °C 8.2 °C 1016.8 hPa NNW 7.2 km/h 11.1 km/h 99% 0.0 mm 0 W/m2
05:49 8.3 °C 8.2 °C 1016.8 hPa NNW 6.1 km/h 11.1 km/h 99% 0.0 mm 1 W/m2
05:54 8.3 °C 8.2 °C 1016.8 hPa NNW 3.5 km/h 8.7 km/h 99% 0.0 mm 4 W/m2
05:59 8.2 °C 8.1 °C 1016.8 hPa NNW 3.5 km/h 8.7 km/h 99% 0.0 mm 6 W/m2
06:04 8.2 °C 8.1 °C 1016.8 hPa North 2.6 km/h 8.7 km/h 99% 0.0 mm 9 W/m2
06:09 8.2 °C 8.1 °C 1016.8 hPa North 2.6 km/h 7.2 km/h 99% 0.0 mm 13 W/m2
06:14 8.2 °C 8.1 °C 1016.5 hPa North 5.0 km/h 8.7 km/h 99% 0.0 mm 15 W/m2
06:19 8.3 °C 8.2 °C 1016.8 hPa NNW 5.0 km/h 9.7 km/h 99% 0.0 mm 19 W/m2
06:24 8.4 °C 8.3 °C 1016.5 hPa NNW 5.0 km/h 9.7 km/h 99% 0.0 mm 23 W/m2
06:29 8.5 °C 8.3 °C 1016.5 hPa NNW 5.0 km/h 8.7 km/h 99% 0.0 mm 30 W/m2
06:34 8.7 °C 8.6 °C 1016.5 hPa NNW 6.1 km/h 9.7 km/h 99% 0.0 mm 32 W/m2
06:39 9.0 °C 8.8 °C 1016.5 hPa NNW 8.7 km/h 13.4 km/h 99% 0.0 mm 67 W/m2
06:44 9.3 °C 9.2 °C 1016.5 hPa NNW 6.1 km/h 13.4 km/h 99% 0.0 mm 75 W/m2
06:49 9.8 °C 9.3 °C 1016.5 hPa NNW 7.2 km/h 13.4 km/h 97% 0.0 mm 85 W/m2
06:54 10.1 °C 9.2 °C 1016.5 hPa NNW 5.0 km/h 13.4 km/h 94% 0.0 mm 92 W/m2
06:59 10.5 °C 9.4 °C 1016.5 hPa North 6.1 km/h 11.1 km/h 93% 0.0 mm 99 W/m2
07:04 10.7 °C 9.1 °C 1016.5 hPa North 5.0 km/h 11.1 km/h 90% 0.0 mm 108 W/m2
07:09 10.9 °C 9.0 °C 1016.5 hPa NNW 6.1 km/h 11.1 km/h 88% 0.0 mm 119 W/m2
07:14 11.2 °C 8.8 °C 1016.5 hPa NNW 3.5 km/h 11.1 km/h 85% 0.0 mm 128 W/m2
07:19 11.6 °C 9.0 °C 1016.5 hPa NNW 7.2 km/h 12.2 km/h 84% 0.0 mm 139 W/m2
07:24 11.9 °C 9.1 °C 1016.1 hPa NNW 5.0 km/h 12.2 km/h 83% 0.0 mm 149 W/m2
07:29 11.8 °C 8.8 °C 1016.1 hPa North 7.2 km/h 12.2 km/h 82% 0.0 mm 150 W/m2
07:34 12.0 °C 8.8 °C 1016.1 hPa North 8.7 km/h 12.2 km/h 81% 0.0 mm 162 W/m2
07:39 12.3 °C 9.1 °C 1016.1 hPa NNW 6.1 km/h 11.1 km/h 81% 0.0 mm 179 W/m2
07:44 12.7 °C 9.5 °C 1016.1 hPa NNW 7.2 km/h 11.1 km/h 81% 0.0 mm 193 W/m2
07:49 13.0 °C 9.4 °C 1016.1 hPa NNW 5.0 km/h 11.1 km/h 79% 0.0 mm 211 W/m2
07:54 13.6 °C 9.8 °C 1016.1 hPa NNW 5.0 km/h 11.1 km/h 78% 0.0 mm 234 W/m2
07:59 13.7 °C 9.6 °C 1016.1 hPa NNW 7.2 km/h 8.7 km/h 76% 0.0 mm 224 W/m2
08:04 14.0 °C 9.8 °C 1016.1 hPa NW 6.1 km/h 8.7 km/h 76% 0.0 mm 233 W/m2
08:09 14.2 °C 10.1 °C 1015.8 hPa NNW 6.1 km/h 8.7 km/h 76% 0.0 mm 255 W/m2
08:14 14.7 °C 10.3 °C 1015.8 hPa NNW 3.5 km/h 7.2 km/h 75% 0.0 mm 271 W/m2
08:19 15.1 °C 10.3 °C 1015.8 hPa NNW 5.0 km/h 8.7 km/h 73% 0.0 mm 309 W/m2
08:24 15.4 °C 10.6 °C 1015.5 hPa NNW 5.0 km/h 8.7 km/h 73% 0.0 mm 317 W/m2
08:29 15.8 °C 11.0 °C 1015.8 hPa NW 3.5 km/h 8.7 km/h 73% 0.0 mm 348 W/m2
08:34 16.5 °C 10.8 °C 1015.5 hPa North 1.1 km/h 7.2 km/h 69% 0.0 mm 357 W/m2
08:39 17.2 °C 10.8 °C 1015.5 hPa NNE 2.6 km/h 7.2 km/h 66% 0.0 mm 396 W/m2
08:44 18.2 °C 11.8 °C 1015.5 hPa North 3.5 km/h 7.2 km/h 66% 0.0 mm 427 W/m2
08:49 18.9 °C 12.2 °C 1015.5 hPa NNW 6.1 km/h 7.2 km/h 65% 0.0 mm 458 W/m2
08:54 19.2 °C 11.5 °C 1015.5 hPa NNW 7.2 km/h 11.1 km/h 61% 0.0 mm 475 W/m2
08:59 19.4 °C 11.4 °C 1015.5 hPa North 3.5 km/h 11.1 km/h 60% 0.0 mm 477 W/m2
09:04 20.1 °C 11.8 °C 1015.5 hPa NNW 6.1 km/h 11.1 km/h 59% 0.0 mm 522 W/m2
09:09 20.2 °C 11.2 °C 1015.5 hPa NNW 7.2 km/h 12.2 km/h 56% 0.0 mm 551 W/m2
09:14 20.0 °C 10.7 °C 1015.5 hPa NNW 7.2 km/h 14.8 km/h 55% 0.0 mm 564 W/m2
09:19 20.1 °C 10.5 °C 1015.5 hPa North 7.2 km/h 14.8 km/h 54% 0.0 mm 508 W/m2
09:24 20.4 °C 10.5 °C 1015.1 hPa NNW 9.7 km/h 15.8 km/h 53% 0.0 mm 575 W/m2
09:29 20.0 °C 10.2 °C 1015.5 hPa North 5.0 km/h 20.9 km/h 53% 0.0 mm 607 W/m2
09:34 20.1 °C 10.2 °C 1015.1 hPa North 9.7 km/h 20.9 km/h 53% 0.0 mm 571 W/m2
09:39 20.3 °C 10.1 °C 1015.1 hPa North 11.1 km/h 21.9 km/h 52% 0.0 mm 512 W/m2
09:44 20.2 °C 9.8 °C 1015.1 hPa North 11.1 km/h 21.9 km/h 51% 0.0 mm 469 W/m2
09:49 20.2 °C 10.3 °C 1014.8 hPa North 11.1 km/h 19.5 km/h 53% 0.0 mm 518 W/m2
09:54 20.3 °C 10.4 °C 1015.1 hPa North 12.2 km/h 20.9 km/h 53% 0.0 mm 597 W/m2
09:59 20.8 °C 10.3 °C 1015.1 hPa NNW 11.1 km/h 21.9 km/h 51% 0.0 mm 690 W/m2
10:05 21.1 °C 10.0 °C 1014.8 hPa NNW 15.8 km/h 28.0 km/h 49% 0.0 mm 707 W/m2
10:10 21.2 °C 8.1 °C 1014.8 hPa NNW 13.4 km/h 30.6 km/h 43% 0.0 mm 778 W/m2
10:15 21.5 °C 8.1 °C 1014.8 hPa NW 17.2 km/h 30.6 km/h 42% 0.0 mm 792 W/m2
10:20 21.6 °C 8.2 °C 1014.8 hPa NNW 18.3 km/h 30.6 km/h 42% 0.0 mm 796 W/m2
10:25 21.4 °C 7.9 °C 1014.8 hPa NW 15.8 km/h 35.6 km/h 42% 0.0 mm 807 W/m2
10:30 21.7 °C 8.2 °C 1014.8 hPa NW 15.8 km/h 35.6 km/h 42% 0.0 mm 827 W/m2
10:35 22.0 °C 8.2 °C 1014.8 hPa NNW 7.2 km/h 34.3 km/h 41% 0.0 mm 852 W/m2
10:40 22.0 °C 7.4 °C 1014.8 hPa NNW 17.2 km/h 25.6 km/h 39% 0.0 mm 864 W/m2
10:45 22.4 °C 7.8 °C 1014.4 hPa NNW 20.9 km/h 29.4 km/h 39% 0.0 mm 913 W/m2
10:50 22.3 °C 6.5 °C 1014.4 hPa NW 21.9 km/h 34.3 km/h 36% 0.0 mm 735 W/m2
10:55 21.8 °C 6.9 °C 1014.4 hPa NNW 20.9 km/h 34.3 km/h 38% 0.0 mm 496 W/m2
11:00 21.9 °C 6.2 °C 1014.4 hPa NNW 14.8 km/h 35.6 km/h 36% 0.0 mm 715 W/m2
11:05 22.0 °C 5.8 °C 1014.4 hPa NW 15.8 km/h 35.6 km/h 35% 0.0 mm 692 W/m2
11:10 21.9 °C 6.2 °C 1014.4 hPa NW 17.2 km/h 29.4 km/h 36% 0.0 mm 813 W/m2
11:15 22.1 °C 6.3 °C 1014.1 hPa NW 23.3 km/h 33.1 km/h 36% 0.0 mm 790 W/m2
11:20 22.4 °C 6.2 °C 1014.4 hPa NW 19.5 km/h 33.1 km/h 35% 0.0 mm 822 W/m2
11:25 22.3 °C 5.7 °C 1014.1 hPa NW 13.4 km/h 30.6 km/h 34% 0.0 mm 693 W/m2
11:30 22.5 °C 6.7 °C 1014.1 hPa NW 14.8 km/h 29.4 km/h 36% 0.0 mm 961 W/m2
11:35 22.7 °C 6.4 °C 1014.1 hPa NW 21.9 km/h 29.4 km/h 35% 0.0 mm 824 W/m2
11:40 22.3 °C 7.3 °C 1014.1 hPa NW 12.2 km/h 29.4 km/h 38% 0.0 mm 661 W/m2
11:45 22.3 °C 6.1 °C 1014.1 hPa NNW 13.4 km/h 34.3 km/h 35% 0.0 mm 646 W/m2
11:50 22.1 °C 6.3 °C 1014.1 hPa NNW 12.2 km/h 34.3 km/h 36% 0.0 mm 732 W/m2
11:55 22.5 °C 7.1 °C 1014.1 hPa NW 14.8 km/h 34.3 km/h 37% 0.0 mm 865 W/m2
12:00 22.6 °C 6.8 °C 1013.8 hPa NW 7.2 km/h 28.0 km/h 36% 0.0 mm 967 W/m2
12:05 23.1 °C 7.2 °C 1013.8 hPa NW 11.1 km/h 29.4 km/h 36% 0.0 mm 972 W/m2
12:10 23.0 °C 7.2 °C 1013.8 hPa NNW 6.1 km/h 29.4 km/h 36% 0.0 mm 953 W/m2
12:15 23.1 °C 8.0 °C 1013.4 hPa NNW 12.2 km/h 23.3 km/h 38% 0.0 mm 923 W/m2
12:20 23.6 °C 8.1 °C 1013.8 hPa NNW 18.3 km/h 25.6 km/h 37% 0.0 mm 982 W/m2
12:26 23.2 °C 7.7 °C 1013.4 hPa NW 7.2 km/h 28.0 km/h 37% 0.0 mm 952 W/m2
12:31 23.6 °C 7.7 °C 1013.4 hPa NW 24.5 km/h 31.7 km/h 36% 0.0 mm 950 W/m2
12:36 23.6 °C 8.1 °C 1013.4 hPa NNW 15.8 km/h 31.7 km/h 37% 0.0 mm 914 W/m2
12:41 23.5 °C 7.6 °C 1013.4 hPa NNW 25.6 km/h 34.3 km/h 36% 0.0 mm 835 W/m2
12:46 22.9 °C 7.1 °C 1013.1 hPa NNW 15.8 km/h 34.3 km/h 36% 0.0 mm 701 W/m2
12:51 23.4 °C 7.9 °C 1013.4 hPa NNW 13.4 km/h 34.3 km/h 37% 0.0 mm 906 W/m2
12:56 23.5 °C 7.6 °C 1013.4 hPa NNW 11.1 km/h 27.0 km/h 36% 0.0 mm 759 W/m2
13:01 23.5 °C 7.6 °C 1013.1 hPa North 13.4 km/h 29.4 km/h 36% 0.0 mm 745 W/m2
13:06 23.4 °C 7.5 °C 1013.4 hPa North 6.1 km/h 29.4 km/h 36% 0.0 mm 404 W/m2
13:11 23.3 °C 7.8 °C 1012.8 hPa North 13.4 km/h 28.0 km/h 37% 0.0 mm 372 W/m2
13:16 23.0 °C 7.2 °C 1013.1 hPa NNW 13.4 km/h 28.0 km/h 36% 0.0 mm 383 W/m2
13:21 22.8 °C 6.1 °C 1012.8 hPa NNW 18.3 km/h 29.4 km/h 34% 0.0 mm 519 W/m2
13:26 22.8 °C 6.1 °C 1012.8 hPa NW 12.2 km/h 29.4 km/h 34% 0.0 mm 499 W/m2
13:31 23.5 °C 7.6 °C 1012.8 hPa NW 17.2 km/h 27.0 km/h 36% 0.0 mm 442 W/m2
13:37 23.5 °C 6.7 °C 1012.8 hPa NW 13.4 km/h 28.0 km/h 34% 0.0 mm 774 W/m2
13:42 23.5 °C 6.3 °C 1012.8 hPa NW 27.0 km/h 37.8 km/h 33% 0.0 mm 635 W/m2
13:47 23.2 °C 6.5 °C 1012.8 hPa NW 17.2 km/h 37.8 km/h 34% 0.0 mm 716 W/m2
13:52 23.2 °C 6.1 °C 1012.4 hPa NW 19.5 km/h 36.7 km/h 33% 0.0 mm 884 W/m2
13:57 23.8 °C 7.4 °C 1012.4 hPa WNW 9.7 km/h 36.7 km/h 35% 0.0 mm 612 W/m2
14:02 23.9 °C 7.5 °C 1012.4 hPa WNW 8.7 km/h 28.0 km/h 35% 0.0 mm 467 W/m2
14:07 23.3 °C 6.2 °C 1012.4 hPa WNW 9.7 km/h 35.6 km/h 33% 0.0 mm 645 W/m2
14:12 23.2 °C 6.5 °C 1012.4 hPa WNW 9.7 km/h 35.6 km/h 34% 0.0 mm 495 W/m2
14:17 23.4 °C 7.1 °C 1012.1 hPa West 11.1 km/h 28.0 km/h 35% 0.0 mm 567 W/m2
14:22 23.2 °C 6.9 °C 1012.1 hPa WNW 15.8 km/h 25.6 km/h 35% 0.0 mm 604 W/m2
14:27 23.4 °C 7.1 °C 1012.1 hPa NW 11.1 km/h 28.0 km/h 35% 0.0 mm 690 W/m2
14:32 24.1 °C 7.3 °C 1012.1 hPa NW 12.2 km/h 28.0 km/h 34% 0.0 mm 748 W/m2
14:37 24.1 °C 7.3 °C 1012.1 hPa NW 14.8 km/h 30.6 km/h 34% 0.0 mm 1003 W/m2
14:42 24.7 °C 7.8 °C 1012.1 hPa NW 14.8 km/h 30.6 km/h 34% 0.0 mm 972 W/m2
14:47 24.3 °C 7.4 °C 1012.1 hPa WNW 18.3 km/h 30.6 km/h 34% 0.0 mm 734 W/m2
14:52 24.0 °C 7.2 °C 1012.1 hPa WNW 12.2 km/h 30.6 km/h 34% 0.0 mm 901 W/m2
14:57 24.2 °C 7.4 °C 1012.1 hPa NW 18.3 km/h 30.6 km/h 34% 0.0 mm 781 W/m2
15:02 23.8 °C 7.0 °C 1012.1 hPa NNW 23.3 km/h 36.7 km/h 34% 0.0 mm 890 W/m2
15:07 23.7 °C 5.1 °C 1012.1 hPa NNW 19.5 km/h 40.4 km/h 30% 0.0 mm 872 W/m2
15:12 24.0 °C 5.8 °C 1011.7 hPa NW 23.3 km/h 40.4 km/h 31% 0.0 mm 557 W/m2
15:17 23.3 °C 6.2 °C 1011.7 hPa NW 25.6 km/h 40.4 km/h 33% 0.0 mm 580 W/m2
15:22 23.0 °C 6.3 °C 1011.7 hPa NW 28.0 km/h 40.4 km/h 34% 0.0 mm 518 W/m2
15:27 23.1 °C 6.8 °C 1011.7 hPa NW 14.8 km/h 40.4 km/h 35% 0.0 mm 681 W/m2
15:32 23.3 °C 7.0 °C 1011.4 hPa NW 27.0 km/h 39.3 km/h 35% 0.0 mm 642 W/m2
15:37 23.2 °C 6.5 °C 1011.4 hPa NW 20.9 km/h 35.6 km/h 34% 0.0 mm 738 W/m2
15:42 23.5 °C 6.3 °C 1011.4 hPa NW 15.8 km/h 39.3 km/h 33% 0.0 mm 750 W/m2
15:47 23.5 °C 6.3 °C 1011.4 hPa NW 18.3 km/h 39.3 km/h 33% 0.0 mm 491 W/m2
15:52 22.9 °C 5.3 °C 1011.1 hPa NNW 23.3 km/h 42.8 km/h 32% 0.0 mm 493 W/m2
15:57 22.8 °C 5.7 °C 1011.4 hPa NW 14.8 km/h 42.8 km/h 33% 0.0 mm 759 W/m2
16:02 23.4 °C 7.1 °C 1011.1 hPa NW 21.9 km/h 36.7 km/h 35% 0.0 mm 717 W/m2
16:07 23.4 °C 7.1 °C 1011.1 hPa NW 13.4 km/h 36.7 km/h 35% 0.0 mm 527 W/m2
16:12 23.1 °C 6.8 °C 1011.1 hPa NW 11.1 km/h 36.7 km/h 35% 0.0 mm 439 W/m2
16:17 23.0 °C 6.7 °C 1011.1 hPa NW 9.7 km/h 33.1 km/h 35% 0.0 mm 594 W/m2
16:22 23.5 °C 7.2 °C 1011.1 hPa NW 15.8 km/h 28.0 km/h 35% 0.0 mm 463 W/m2
16:27 23.1 °C 6.8 °C 1011.1 hPa NW 7.2 km/h 29.4 km/h 35% 0.0 mm 476 W/m2
16:32 23.4 °C 7.1 °C 1010.7 hPa NW 13.4 km/h 35.6 km/h 35% 0.0 mm 678 W/m2
16:37 23.5 °C 7.2 °C 1011.1 hPa NW 19.5 km/h 35.6 km/h 35% 0.0 mm 549 W/m2
16:42 23.2 °C 7.3 °C 1010.7 hPa NNW 15.8 km/h 34.3 km/h 36% 0.0 mm 633 W/m2
16:47 23.5 °C 7.2 °C 1010.7 hPa NNW 19.5 km/h 34.3 km/h 35% 0.0 mm 620 W/m2
16:52 23.5 °C 7.2 °C 1010.7 hPa NW 18.3 km/h 29.4 km/h 35% 0.0 mm 241 W/m2
16:57 22.5 °C 5.9 °C 1010.4 hPa NW 17.2 km/h 30.6 km/h 34% 0.0 mm 235 W/m2
17:02 22.1 °C 5.9 °C 1010.7 hPa NW 18.3 km/h 31.7 km/h 35% 0.0 mm 231 W/m2
17:07 22.0 °C 6.3 °C 1010.4 hPa NW 19.5 km/h 31.7 km/h 36% 0.0 mm 246 W/m2
17:12 21.9 °C 6.2 °C 1010.4 hPa NW 13.4 km/h 34.3 km/h 36% 0.0 mm 265 W/m2
17:17 22.1 °C 6.7 °C 1010.4 hPa NNW 21.9 km/h 34.3 km/h 37% 0.0 mm 255 W/m2
17:22 22.0 °C 6.7 °C 1010.4 hPa NNW 12.2 km/h 31.7 km/h 37% 0.0 mm 334 W/m2
17:27 22.2 °C 6.0 °C 1010.4 hPa NNW 19.5 km/h 34.3 km/h 35% 0.0 mm 292 W/m2
17:32 22.0 °C 6.3 °C 1010.0 hPa NNW 20.9 km/h 35.6 km/h 36% 0.0 mm 332 W/m2
17:37 22.0 °C 6.3 °C 1010.0 hPa NW 15.8 km/h 35.6 km/h 36% 0.0 mm 266 W/m2
17:42 22.1 °C 6.7 °C 1010.0 hPa NW 15.8 km/h 28.0 km/h 37% 0.0 mm 316 W/m2
17:47 22.8 °C 6.9 °C 1009.7 hPa NW 17.2 km/h 33.1 km/h 36% 0.0 mm 385 W/m2
17:52 23.0 °C 6.7 °C 1009.7 hPa NW 17.2 km/h 33.1 km/h 35% 0.0 mm 486 W/m2
17:57 22.8 °C 6.1 °C 1010.0 hPa NW 15.8 km/h 39.3 km/h 34% 0.0 mm 212 W/m2
18:02 21.7 °C 6.0 °C 1009.7 hPa NW 23.3 km/h 39.3 km/h 36% 0.0 mm 179 W/m2
18:07 21.3 °C 6.1 °C 1009.7 hPa NW 14.8 km/h 36.7 km/h 37% 0.0 mm 155 W/m2
18:12 21.3 °C 7.2 °C 1009.7 hPa NW 20.9 km/h 36.7 km/h 40% 0.0 mm 143 W/m2
18:17 21.3 °C 6.8 °C 1009.4 hPa NNW 13.4 km/h 36.7 km/h 39% 0.0 mm 130 W/m2
18:22 21.3 °C 6.8 °C 1009.7 hPa NNW 17.2 km/h 36.7 km/h 39% 0.0 mm 123 W/m2
18:27 21.1 °C 6.6 °C 1009.7 hPa NNW 21.9 km/h 35.6 km/h 39% 0.0 mm 115 W/m2
18:32 21.0 °C 6.6 °C 1009.7 hPa NW 24.5 km/h 35.6 km/h 39% 0.0 mm 107 W/m2
18:37 21.0 °C 6.6 °C 1009.7 hPa NW 14.8 km/h 33.1 km/h 39% 0.0 mm 100 W/m2
18:42 21.0 °C 6.6 °C 1009.7 hPa NW 15.8 km/h 35.6 km/h 39% 0.0 mm 97 W/m2
18:47 20.9 °C 6.8 °C 1009.7 hPa NW 11.1 km/h 35.6 km/h 40% 0.0 mm 95 W/m2
18:52 20.9 °C 6.8 °C 1009.7 hPa NW 8.7 km/h 27.0 km/h 40% 0.0 mm 86 W/m2
18:57 20.8 °C 6.7 °C 1009.7 hPa NW 9.7 km/h 30.6 km/h 40% 0.0 mm 82 W/m2
19:02 20.7 °C 6.3 °C 1009.7 hPa NW 13.4 km/h 30.6 km/h 39% 0.0 mm 80 W/m2
19:07 20.6 °C 6.6 °C 1009.7 hPa NW 14.8 km/h 25.6 km/h 40% 0.0 mm 71 W/m2
19:12 20.6 °C 6.9 °C 1009.7 hPa WNW 12.2 km/h 25.6 km/h 41% 0.0 mm 58 W/m2
19:17 20.5 °C 6.4 °C 1009.7 hPa NW 12.2 km/h 27.0 km/h 40% 0.0 mm 66 W/m2
19:22 20.4 °C 6.3 °C 1010.0 hPa NNW 14.8 km/h 27.0 km/h 40% 0.0 mm 62 W/m2
19:27 20.4 °C 6.3 °C 1009.7 hPa NW 9.7 km/h 23.3 km/h 40% 0.0 mm 46 W/m2
19:32 20.3 °C 6.6 °C 1009.7 hPa NW 9.7 km/h 21.9 km/h 41% 0.0 mm 47 W/m2
19:37 20.2 °C 6.2 °C 1009.7 hPa NW 8.7 km/h 19.5 km/h 40% 0.0 mm 48 W/m2
19:42 20.2 °C 6.6 °C 1009.7 hPa NNW 12.2 km/h 20.9 km/h 41% 0.0 mm 41 W/m2
19:47 20.1 °C 6.1 °C 1009.7 hPa NW 8.7 km/h 21.9 km/h 40% 0.0 mm 35 W/m2
19:52 20.1 °C 6.1 °C 1009.7 hPa NW 20.9 km/h 30.6 km/h 40% 0.0 mm 33 W/m2
19:57 20.0 °C 6.3 °C 1009.7 hPa NW 13.4 km/h 30.6 km/h 41% 0.0 mm 28 W/m2
20:02 19.9 °C 6.6 °C 1009.4 hPa NW 15.8 km/h 30.6 km/h 42% 0.0 mm 22 W/m2
20:07 19.9 °C 6.6 °C 1009.7 hPa NW 14.8 km/h 33.1 km/h 42% 0.0 mm 18 W/m2
20:12 19.8 °C 6.5 °C 1009.7 hPa NW 19.5 km/h 34.3 km/h 42% 0.0 mm 14 W/m2
20:17 19.7 °C 6.4 °C 1009.7 hPa NW 8.7 km/h 34.3 km/h 42% 0.0 mm 12 W/m2
20:22 19.6 °C 6.7 °C 1009.4 hPa NW 13.4 km/h 34.3 km/h 43% 0.0 mm 13 W/m2
20:27 19.4 °C 6.5 °C 1009.4 hPa NW 11.1 km/h 31.7 km/h 43% 0.0 mm 10 W/m2
20:32 19.4 °C 6.8 °C 1009.4 hPa NNW 15.8 km/h 31.7 km/h 44% 0.0 mm 6 W/m2
20:37 19.4 °C 6.8 °C 1009.7 hPa NW 11.1 km/h 25.6 km/h 44% 0.0 mm 4 W/m2
20:43 19.3 °C 6.8 °C 1009.7 hPa NW 9.7 km/h 28.0 km/h 44% 0.0 mm 1 W/m2
20:48 19.1 °C 6.9 °C 1009.7 hPa NW 8.7 km/h 24.5 km/h 45% 0.0 mm 0 W/m2
20:53 19.0 °C 6.8 °C 1009.7 hPa NW 7.2 km/h 20.9 km/h 45% 0.0 mm 0 W/m2
20:58 18.8 °C 6.9 °C 1009.7 hPa NW 7.2 km/h 20.9 km/h 46% 0.0 mm 0 W/m2
21:04 18.7 °C 7.2 °C 1009.7 hPa NW 17.2 km/h 24.5 km/h 47% 0.0 mm 0 W/m2
21:09 18.7 °C 7.2 °C 1009.7 hPa NW 8.7 km/h 24.5 km/h 47% 0.0 mm 0 W/m2
21:14 18.6 °C 7.1 °C 1010.0 hPa NW 6.1 km/h 24.5 km/h 47% 0.0 mm 0 W/m2
21:19 18.5 °C 7.0 °C 1010.4 hPa NW 1.1 km/h 15.8 km/h 47% 0.0 mm 0 W/m2
21:25 18.3 °C 7.1 °C 1010.4 hPa NW 3.5 km/h 15.8 km/h 48% 0.0 mm 0 W/m2
21:30 18.2 °C 7.0 °C 1010.0 hPa NW 9.7 km/h 18.3 km/h 48% 0.0 mm 0 W/m2
21:35 18.2 °C 7.0 °C 1010.4 hPa NW 12.2 km/h 23.3 km/h 48% 0.0 mm 0 W/m2
21:40 18.2 °C 7.0 °C 1010.4 hPa NW 6.1 km/h 23.3 km/h 48% 0.0 mm 0 W/m2
21:45 18.1 °C 6.9 °C 1010.4 hPa NW 7.2 km/h 17.2 km/h 48% 0.0 mm 0 W/m2
21:50 18.1 °C 6.9 °C 1010.4 hPa WNW 9.7 km/h 23.3 km/h 48% 0.0 mm 0 W/m2
21:55 18.0 °C 6.8 °C 1010.7 hPa NW 11.1 km/h 23.3 km/h 48% 0.0 mm 0 W/m2
22:00 17.9 °C 7.1 °C 1010.7 hPa NW 1.1 km/h 17.2 km/h 49% 0.0 mm 0 W/m2
22:05 17.7 °C 6.8 °C 1010.7 hPa NW 3.5 km/h 14.8 km/h 49% 0.0 mm 0 W/m2
22:10 17.5 °C 6.9 °C 1010.7 hPa NW 3.5 km/h 9.7 km/h 50% 0.0 mm 0 W/m2
22:15 17.4 °C 6.9 °C 1010.7 hPa NW 6.1 km/h 13.4 km/h 50% 0.0 mm 0 W/m2
22:20 17.4 °C 6.6 °C 1010.7 hPa NW 6.1 km/h 13.4 km/h 49% 0.0 mm 0 W/m2
22:25 17.4 °C 6.9 °C 1010.7 hPa NW 6.1 km/h 13.4 km/h 50% 0.0 mm 0 W/m2
22:30 17.3 °C 6.8 °C 1010.7 hPa WNW 6.1 km/h 12.2 km/h 50% 0.0 mm 0 W/m2
22:47 17.0 °C 6.5 °C 1010.7 hPa NW 7.2 km/h 13.4 km/h 50% 0.0 mm 0 W/m2
22:53 17.0 °C 6.5 °C 1010.7 hPa WNW 2.6 km/h 13.4 km/h 50% 0.0 mm 0 W/m2
22:58 16.8 °C 6.9 °C 1010.7 hPa WNW 6.1 km/h 7.2 km/h 52% 0.0 mm 0 W/m2
23:03 16.7 °C 6.8 °C 1010.7 hPa WNW 6.1 km/h 12.2 km/h 52% 0.0 mm 0 W/m2
23:08 16.6 °C 6.7 °C 1010.7 hPa WNW 1.1 km/h 12.2 km/h 52% 0.0 mm 0 W/m2
23:13 16.4 °C 6.5 °C 1011.1 hPa Calm   11.1 km/h 52% 0.0 mm 0 W/m2
23:19 16.2 °C 6.6 °C 1011.1 hPa West 2.6 km/h 3.5 km/h 53% 0.0 mm 0 W/m2
23:24 16.0 °C 6.4 °C 1010.7 hPa NW 2.6 km/h 6.1 km/h 53% 0.0 mm 0 W/m2
23:29 15.8 °C 6.5 °C 1010.7 hPa WNW 5.0 km/h 7.2 km/h 54% 0.0 mm 0 W/m2
23:34 15.8 °C 6.8 °C 1011.1 hPa NW 5.0 km/h 8.7 km/h 55% 0.0 mm 0 W/m2
23:39 15.8 °C 6.8 °C 1010.7 hPa NW 5.0 km/h 8.7 km/h 55% 0.0 mm 0 W/m2
23:44 15.7 °C 6.7 °C 1010.7 hPa NW 5.0 km/h 12.2 km/h 55% 0.0 mm 0 W/m2
23:49 15.6 °C 6.6 °C 1010.7 hPa NW 6.1 km/h 12.2 km/h 55% 0.0 mm 0 W/m2
23:54 15.6 °C 6.8 °C 1010.7 hPa NW 3.5 km/h 11.1 km/h 56% 0.0 mm 0 W/m2
23:59 15.4 °C 6.7 °C 1010.7 hPa NW 3.5 km/h 9.7 km/h 56% 0.0 mm 0 W/m2
Northern Hawkes Bay. New Zealand Historic Data
Compliments of Weather Underground - 2 mb